Time;durP1;ratioP1;P1;durP2;ratioP2;P2;SDS_P1;SDS_P2;PMS_P1;PMS_P2;Temp;Humidity;BMP_temperature;BMP_pressure;BME280_temperature;BME280_humidity;BME280_pressure;Samples;Min_cycle;Max_cycle;Signal;HPM_P1;HPM_P2
2021/06/20 00:01:55;;;;;;;11.13;5.95;;;21.70;99.90;;;;;;5079524;28;20665;-70
2021/06/20 00:05:00;;;;;;;8.50;5.53;;;21.70;99.90;;;;;;5080763;28;20387;-70
2021/06/20 00:08:08;;;;;;;13.50;6.15;;;21.70;99.90;;;;;;5080187;28;20047;-70
2021/06/20 00:11:12;;;;;;;11.73;5.28;;;21.60;99.90;;;;;;5078151;28;20079;-70
2021/06/20 00:14:17;;;;;;;11.10;5.72;;;21.70;99.90;;;;;;5079709;28;20031;-69
2021/06/20 00:17:23;;;;;;;11.63;6.05;;;21.60;99.90;;;;;;5082484;28;20046;-69
2021/06/20 00:20:30;;;;;;;9.25;5.65;;;21.60;99.90;;;;;;5079215;28;20075;-70
2021/06/20 00:23:34;;;;;;;11.25;5.50;;;21.50;99.90;;;;;;5080357;28;20391;-70
2021/06/20 00:26:40;;;;;;;11.00;5.60;;;21.50;99.90;;;;;;5079776;28;20051;-70
2021/06/20 00:29:45;;;;;;;10.32;6.15;;;21.40;99.90;;;;;;5082134;28;20035;-70
2021/06/20 00:32:49;;;;;;;11.77;6.97;;;21.40;99.90;;;;;;5077715;28;20070;-70
2021/06/20 00:35:55;;;;;;;9.75;6.28;;;21.20;99.90;;;;;;5083383;28;20046;-69
2021/06/20 00:39:00;;;;;;;13.38;6.57;;;21.10;99.90;;;;;;5077482;28;20047;-69
2021/06/20 00:42:04;;;;;;;9.95;5.80;;;21.10;99.90;;;;;;5077000;28;20023;-69
2021/06/20 00:45:11;;;;;;;11.90;6.07;;;21.10;99.90;;;;;;5083107;28;20043;-69
2021/06/20 00:48:15;;;;;;;12.95;7.00;;;21.10;99.90;;;;;;5078320;28;20043;-70
2021/06/20 00:51:20;;;;;;;11.43;5.70;;;21.10;99.90;;;;;;5076710;28;20133;-70
2021/06/20 00:54:24;;;;;;;11.10;5.75;;;21.10;99.90;;;;;;5078296;28;20111;-69
2021/06/20 00:57:27;;;;;;;11.05;6.35;;;21.10;99.90;;;;;;5077285;28;20043;-70
2021/06/20 01:00:34;;;;;;;10.88;5.82;;;21.10;99.90;;;;;;5078441;28;20031;-70
2021/06/20 01:03:38;;;;;;;12.48;6.25;;;21.00;99.90;;;;;;5076789;28;20517;-70
2021/06/20 01:06:42;;;;;;;13.60;6.22;;;21.00;99.90;;;;;;5081911;28;20391;-70
2021/06/20 01:09:47;;;;;;;9.75;6.25;;;20.90;99.90;;;;;;5075956;28;20051;-69
2021/06/20 01:12:51;;;;;;;11.25;6.40;;;20.80;99.90;;;;;;5079031;28;20047;-70
2021/06/20 01:15:55;;;;;;;9.82;6.65;;;20.70;99.90;;;;;;5079001;28;20036;-69
2021/06/20 01:18:59;;;;;;;13.80;7.15;;;20.70;99.90;;;;;;5069560;28;20044;-69
2021/06/20 01:22:34;;;;;;;11.15;7.32;;;20.60;99.90;;;;;;5072158;28;20542;-70
2021/06/20 01:25:40;;;;;;;16.42;7.60;;;20.60;99.90;;;;;;5069577;28;20060;-69
2021/06/20 01:28:52;;;;;;;11.27;6.65;;;20.40;99.90;;;;;;5069702;28;20036;-70
2021/06/20 01:31:58;;;;;;;10.23;6.60;;;20.40;99.90;;;;;;5078793;28;20153;-70
2021/06/20 01:35:03;;;;;;;11.18;7.15;;;20.20;99.90;;;;;;5085046;28;20503;-69
2021/06/20 01:38:09;;;;;;;13.60;7.20;;;20.20;99.90;;;;;;5070122;28;20039;-69
2021/06/20 01:41:12;;;;;;;11.70;7.65;;;20.20;99.90;;;;;;5073968;28;20482;-70
2021/06/20 01:44:16;;;;;;;10.55;7.80;;;20.20;99.90;;;;;;5074596;28;20039;-70
2021/06/20 01:47:25;;;;;;;16.65;8.23;;;20.20;99.90;;;;;;5068609;28;20522;-70
2021/06/20 01:50:30;;;;;;;18.63;8.80;;;20.10;99.90;;;;;;5068752;28;20048;-69
2021/06/20 01:53:36;;;;;;;10.05;7.53;;;20.20;99.90;;;;;;5069368;28;20040;-69
2021/06/20 01:56:40;;;;;;;10.07;7.53;;;20.20;99.90;;;;;;5069538;28;20396;-69
2021/06/20 01:59:46;;;;;;;10.40;7.18;;;20.20;99.90;;;;;;5069493;28;20491;-70
2021/06/20 02:02:51;;;;;;;13.27;7.30;;;20.20;99.90;;;;;;5068579;28;20498;-70
2021/06/20 02:06:00;;;;;;;17.13;8.45;;;20.20;99.90;;;;;;5069302;28;20047;-70
2021/06/20 02:09:05;;;;;;;12.95;6.78;;;20.10;99.90;;;;;;5069735;28;20666;-69
2021/06/20 02:12:11;;;;;;;10.98;7.22;;;20.10;99.90;;;;;;5077798;28;20044;-69
2021/06/20 02:15:16;;;;;;;9.73;7.13;;;20.10;99.90;;;;;;5072857;28;20063;-69
2021/06/20 02:18:21;;;;;;;20.98;7.93;;;20.10;99.90;;;;;;5073530;28;20031;-70
2021/06/20 02:21:28;;;;;;;16.58;8.63;;;20.10;99.90;;;;;;5088937;28;20386;-69
2021/06/20 02:24:32;;;;;;;9.82;7.72;;;20.10;99.90;;;;;;5072990;28;20055;-70
2021/06/20 02:27:37;;;;;;;9.23;7.68;;;20.20;99.90;;;;;;5093484;28;20118;-69
2021/06/20 02:30:41;;;;;;;17.38;8.45;;;20.10;99.90;;;;;;5080643;28;20040;-69
2021/06/20 02:33:45;;;;;;;14.20;7.82;;;20.10;99.90;;;;;;5088749;28;20374;-69
2021/06/20 02:36:49;;;;;;;15.70;8.02;;;20.10;99.90;;;;;;5072836;28;20047;-69
2021/06/20 02:39:54;;;;;;;10.75;7.72;;;20.00;99.90;;;;;;5088152;28;20039;-70
2021/06/20 02:42:58;;;;;;;10.57;7.32;;;20.00;99.90;;;;;;5086226;28;20059;-69
2021/06/20 02:46:02;;;;;;;14.48;7.15;;;19.90;99.90;;;;;;5071817;28;20056;-69
2021/06/20 02:49:06;;;;;;;10.30;7.40;;;20.00;99.90;;;;;;5072166;28;20052;-69
2021/06/20 02:52:14;;;;;;;10.85;7.30;;;20.00;99.90;;;;;;5071573;28;20047;-69
2021/06/20 02:55:18;;;;;;;13.00;7.13;;;20.10;99.90;;;;;;5072670;28;20043;-69
2021/06/20 02:58:22;;;;;;;10.68;6.90;;;20.10;99.90;;;;;;5073147;28;20043;-70
2021/06/20 03:01:27;;;;;;;14.38;7.40;;;20.10;99.90;;;;;;5085528;28;20066;-69
2021/06/20 03:04:31;;;;;;;11.07;6.80;;;20.20;99.90;;;;;;5087073;28;20390;-70
2021/06/20 03:07:35;;;;;;;9.90;6.90;;;20.20;99.90;;;;;;5092482;28;20046;-69
2021/06/20 03:10:39;;;;;;;10.40;7.00;;;20.20;99.90;;;;;;5075095;28;20491;-69
2021/06/20 03:13:43;;;;;;;11.10;7.72;;;20.20;99.90;;;;;;5077394;28;20146;-70
2021/06/20 03:16:48;;;;;;;14.23;8.02;;;20.10;99.90;;;;;;5071877;28;20043;-69
2021/06/20 03:19:52;;;;;;;14.02;7.60;;;20.10;99.90;;;;;;5089912;28;20497;-69
2021/06/20 03:22:57;;;;;;;18.40;8.32;;;20.00;99.90;;;;;;5087091;28;20043;-70
2021/06/20 03:26:02;;;;;;;14.23;7.20;;;20.00;99.90;;;;;;5091996;28;20047;-70
2021/06/20 03:29:06;;;;;;;10.80;7.53;;;20.10;99.90;;;;;;5091154;28;20043;-69
2021/06/20 03:32:10;;;;;;;26.30;7.15;;;20.20;99.90;;;;;;5084814;28;20055;-69
2021/06/20 03:35:15;;;;;;;14.85;8.02;;;20.20;99.90;;;;;;5092357;28;20245;-70
2021/06/20 03:38:19;;;;;;;13.52;7.05;;;20.30;99.90;;;;;;5082937;28;20044;-70
2021/06/20 03:41:23;;;;;;;16.38;7.40;;;20.30;99.90;;;;;;5075356;28;20028;-70
2021/06/20 03:44:27;;;;;;;11.45;6.85;;;20.30;99.90;;;;;;5071323;28;20044;-70
2021/06/20 03:47:32;;;;;;;14.68;7.72;;;20.30;99.90;;;;;;5090579;28;20047;-69
2021/06/20 03:50:37;;;;;;;14.65;7.38;;;20.40;99.90;;;;;;5089299;28;20379;-70
2021/06/20 03:53:41;;;;;;;14.93;5.95;;;20.40;99.90;;;;;;5090011;28;20419;-70
2021/06/20 03:56:46;;;;;;;13.18;6.22;;;20.40;99.90;;;;;;5091229;28;20039;-70
2021/06/20 03:59:51;;;;;;;12.60;5.38;;;20.40;99.90;;;;;;5075042;28;20710;-70
2021/06/20 04:02:55;;;;;;;12.80;6.15;;;20.50;99.90;;;;;;5074798;28;20051;-70
2021/06/20 04:05:59;;;;;;;16.05;6.20;;;20.60;99.90;;;;;;5091065;28;20051;-69
2021/06/20 04:09:04;;;;;;;13.05;6.05;;;20.60;99.90;;;;;;5089912;28;20541;-69
2021/06/20 04:12:13;;;;;;;14.27;6.38;;;20.60;99.90;;;;;;5089289;28;20387;-70
2021/06/20 04:15:17;;;;;;;14.38;6.38;;;20.60;99.90;;;;;;5090996;28;20047;-70
2021/06/20 04:18:22;;;;;;;15.10;6.75;;;20.70;99.90;;;;;;5090606;28;20505;-70
2021/06/20 04:21:26;;;;;;;14.77;6.88;;;20.70;99.90;;;;;;5089208;28;20047;-70
2021/06/20 04:24:31;;;;;;;15.10;7.38;;;20.80;99.90;;;;;;5070947;28;20039;-70
2021/06/20 04:27:36;;;;;;;17.05;8.98;;;20.90;99.90;;;;;;5070678;28;20059;-69
2021/06/20 04:30:40;;;;;;;18.73;11.55;;;21.10;99.90;;;;;;5080982;28;20050;-70
2021/06/20 04:33:45;;;;;;;18.27;10.38;;;21.30;99.90;;;;;;5090022;28;20055;-70
2021/06/20 04:36:49;;;;;;;24.45;9.98;;;21.60;99.90;;;;;;5070044;28;20379;-70
2021/06/20 04:39:53;;;;;;;17.75;9.70;;;21.60;99.90;;;;;;5083194;28;20047;-70
2021/06/20 04:43:04;;;;;;;13.63;7.30;;;21.70;99.90;;;;;;5089640;28;20406;-70
2021/06/20 04:46:30;;;;;;;17.13;8.60;;;22.00;99.90;;;;;;5070346;28;20402;-70
2021/06/20 04:49:34;;;;;;;17.95;9.27;;;22.40;99.90;;;;;;5084985;28;20078;-70
2021/06/20 04:52:42;;;;;;;14.23;8.45;;;22.60;99.90;;;;;;5086918;28;20482;-70
2021/06/20 04:55:46;;;;;;;12.70;8.18;;;22.40;99.90;;;;;;5069752;28;20063;-70
2021/06/20 04:58:50;;;;;;;16.90;8.27;;;22.60;99.90;;;;;;5086291;28;20043;-70
2021/06/20 05:01:55;;;;;;;17.45;9.77;;;22.60;99.90;;;;;;5083445;28;20110;-70
2021/06/20 05:05:00;;;;;;;10.98;6.78;;;22.00;99.90;;;;;;5090063;28;20047;-70
2021/06/20 05:08:04;;;;;;;14.32;7.47;;;21.80;99.90;;;;;;5069650;28;20059;-70
2021/06/20 05:11:08;;;;;;;11.48;6.40;;;22.00;99.90;;;;;;5069061;28;20067;-70
2021/06/20 05:14:13;;;;;;;18.95;6.35;;;22.10;99.90;;;;;;5069587;28;20043;-69
2021/06/20 05:17:18;;;;;;;13.82;5.78;;;22.10;99.90;;;;;;5069483;28;20063;-70
2021/06/20 05:20:24;;;;;;;13.60;5.85;;;22.10;99.90;;;;;;5083028;28;20382;-70
2021/06/20 05:23:28;;;;;;;13.40;6.25;;;22.20;99.90;;;;;;5074606;28;20588;-69
2021/06/20 05:26:32;;;;;;;12.40;7.00;;;21.60;99.90;;;;;;5069286;28;20043;-69
2021/06/20 05:29:37;;;;;;;15.32;7.45;;;20.90;99.90;;;;;;5085062;28;20360;-68
2021/06/20 05:32:41;;;;;;;11.90;8.00;;;20.50;99.90;;;;;;5088772;28;20399;-68
2021/06/20 05:35:47;;;;;;;12.27;8.32;;;20.20;99.90;;;;;;5069921;28;20056;-69
2021/06/20 05:38:51;;;;;;;15.05;8.13;;;20.20;99.90;;;;;;5084417;28;20062;-70
2021/06/20 05:41:56;;;;;;;13.15;8.00;;;20.40;99.90;;;;;;5087931;28;20031;-69
2021/06/20 05:45:00;;;;;;;10.98;7.35;;;21.00;99.90;;;;;;5091557;28;20043;-68
2021/06/20 05:48:04;;;;;;;10.32;7.47;;;21.20;99.90;;;;;;5080547;28;20043;-70
2021/06/20 05:51:08;;;;;;;15.65;8.38;;;21.00;99.90;;;;;;5087351;28;20047;-70
2021/06/20 05:54:13;;;;;;;16.58;7.90;;;21.30;99.90;;;;;;5091218;28;20043;-69
2021/06/20 05:57:21;;;;;;;12.07;9.70;;;21.50;99.90;;;;;;5073109;28;20395;-69
2021/06/20 06:00:25;;;;;;;24.88;11.05;;;21.70;99.90;;;;;;5091859;28;20051;-69
2021/06/20 06:03:35;;;;;;;21.85;10.93;;;21.60;99.90;;;;;;5092344;28;20106;-71
2021/06/20 06:06:39;;;;;;;23.98;11.32;;;21.30;99.90;;;;;;5091823;28;20042;-69
2021/06/20 06:09:43;;;;;;;20.13;10.98;;;21.00;99.90;;;;;;5086173;28;20051;-69
2021/06/20 06:12:47;;;;;;;17.25;11.27;;;21.50;99.90;;;;;;5092146;28;20042;-69
2021/06/20 06:15:52;;;;;;;19.35;9.77;;;21.20;99.90;;;;;;5090771;28;20493;-69
2021/06/20 06:18:56;;;;;;;18.40;10.25;;;21.30;99.90;;;;;;5088009;28;20394;-70
2021/06/20 06:22:00;;;;;;;19.15;9.50;;;21.80;99.90;;;;;;5088109;28;20039;-70
2021/06/20 06:25:05;;;;;;;17.52;9.88;;;22.00;99.90;;;;;;5090270;28;20035;-70
2021/06/20 06:28:10;;;;;;;16.55;10.30;;;22.20;99.90;;;;;;5090362;28;20386;-70
2021/06/20 06:31:14;;;;;;;18.05;10.35;;;22.50;99.90;;;;;;5083022;28;20074;-70
2021/06/20 06:34:20;;;;;;;15.27;9.50;;;22.60;99.90;;;;;;5091407;28;20067;-69
2021/06/20 06:37:24;;;;;;;17.23;9.90;;;22.30;99.90;;;;;;5088802;28;20071;-70
2021/06/20 06:40:29;;;;;;;13.95;10.05;;;22.20;99.90;;;;;;5087027;28;20031;-69
2021/06/20 06:43:33;;;;;;;15.45;9.27;;;21.80;99.90;;;;;;5091085;28;20499;-68
2021/06/20 06:46:37;;;;;;;15.70;9.88;;;21.30;99.90;;;;;;5089482;28;20058;-69
2021/06/20 06:49:41;;;;;;;14.88;8.98;;;21.30;99.90;;;;;;5086276;28;20039;-69
2021/06/20 06:52:46;;;;;;;11.20;7.80;;;22.00;99.90;;;;;;5090711;28;20395;-70
2021/06/20 06:55:53;;;;;;;10.52;6.47;;;23.90;99.90;;;;;;5089407;28;20035;-70
2021/06/20 06:58:59;;;;;;;14.05;6.10;;;25.40;99.90;;;;;;5087227;28;20035;-70
2021/06/20 07:02:04;;;;;;;11.80;6.35;;;26.20;99.90;;;;;;5086298;28;20494;-68
2021/06/20 07:05:09;;;;;;;10.82;6.35;;;25.90;99.90;;;;;;5089350;28;20047;-70
2021/06/20 07:08:15;;;;;;;11.05;6.30;;;25.10;99.90;;;;;;5084492;28;20078;-70
2021/06/20 07:11:21;;;;;;;8.57;6.20;;;25.00;99.90;;;;;;5087580;28;20044;-70
2021/06/20 07:14:25;;;;;;;8.85;6.20;;;25.10;99.90;;;;;;5090124;28;20047;-70
2021/06/20 07:17:32;;;;;;;15.02;6.00;;;24.50;99.90;;;;;;5090252;28;20039;-69
2021/06/20 07:20:36;;;;;;;10.77;5.72;;;24.10;99.90;;;;;;5086850;28;20040;-70
2021/06/20 07:23:39;;;;;;;9.65;6.22;;;24.40;99.90;;;;;;5086704;28;20034;-69
2021/06/20 07:26:44;;;;;;;13.10;5.65;;;24.50;99.90;;;;;;5087080;28;20046;-69
2021/06/20 07:29:48;;;;;;;10.07;4.95;;;25.90;99.90;;;;;;5086241;28;20047;-70
2021/06/20 07:32:54;;;;;;;8.23;4.40;;;27.30;99.90;;;;;;5088104;28;20098;-71
2021/06/20 07:35:58;;;;;;;12.07;4.80;;;29.10;99.60;;;;;;5085926;28;20040;-70
2021/06/20 07:39:03;;;;;;;9.00;3.83;;;30.70;97.10;;;;;;5086638;28;20035;-71
2021/06/20 07:42:07;;;;;;;6.25;3.25;;;30.90;95.90;;;;;;5086780;28;20035;-71
2021/06/20 07:45:13;;;;;;;6.82;3.70;;;33.20;93.90;;;;;;5087797;28;20035;-71
2021/06/20 07:48:17;;;;;;;9.55;3.88;;;34.40;91.80;;;;;;5084622;28;20067;-71
2021/06/20 07:51:21;;;;;;;8.50;4.18;;;35.30;90.70;;;;;;5085951;28;20068;-71
2021/06/20 07:54:25;;;;;;;6.05;3.20;;;34.30;90.10;;;;;;5088756;28;20047;-70
2021/06/20 07:57:29;;;;;;;7.90;3.72;;;34.40;90.30;;;;;;5086858;28;20332;-70
2021/06/20 08:00:34;;;;;;;8.43;4.05;;;34.00;89.80;;;;;;5080488;28;20040;-67
2021/06/20 08:03:39;;;;;;;8.18;4.30;;;29.70;92.20;;;;;;5088648;28;20039;-69
2021/06/20 08:06:44;;;;;;;10.82;5.30;;;27.70;96.10;;;;;;5085600;28;20055;-68
2021/06/20 08:09:49;;;;;;;16.08;5.57;;;26.70;98.20;;;;;;5084791;28;20051;-69
2021/06/20 08:12:55;;;;;;;11.07;5.15;;;27.20;97.30;;;;;;5088317;28;20067;-69
2021/06/20 08:16:00;;;;;;;7.50;5.13;;;26.70;96.90;;;;;;5087728;28;20086;-68
2021/06/20 08:19:04;;;;;;;7.22;4.72;;;27.20;97.60;;;;;;5085136;28;20055;-68
2021/06/20 08:22:09;;;;;;;9.05;5.30;;;27.20;97.60;;;;;;5087803;28;20043;-70
2021/06/20 08:25:14;;;;;;;9.70;5.32;;;26.40;98.10;;;;;;5086122;28;20032;-69
2021/06/20 08:28:18;;;;;;;12.82;5.70;;;26.70;99.10;;;;;;5085159;28;20043;-68
2021/06/20 08:31:22;;;;;;;10.93;5.30;;;26.40;98.80;;;;;;5084415;28;20039;-68
2021/06/20 08:34:30;;;;;;;9.70;4.70;;;26.70;99.60;;;;;;5086174;28;20050;-68
2021/06/20 08:37:35;;;;;;;9.98;5.07;;;27.00;98.60;;;;;;5083922;28;20047;-69
2021/06/20 08:40:42;;;;;;;10.88;5.10;;;27.30;97.80;;;;;;5082457;28;20042;-70
2021/06/20 08:43:46;;;;;;;12.20;4.88;;;27.70;97.30;;;;;;5086084;28;20150;-69
2021/06/20 08:46:51;;;;;;;11.18;4.53;;;27.60;98.40;;;;;;5078110;28;20074;-67
2021/06/20 08:49:56;;;;;;;5.45;4.32;;;27.80;97.60;;;;;;5074803;28;20075;-68
2021/06/20 08:53:00;;;;;;;12.48;4.55;;;27.20;98.70;;;;;;5084725;28;20047;-69
2021/06/20 08:56:05;;;;;;;6.18;4.05;;;27.20;99.00;;;;;;5083778;28;20383;-68
2021/06/20 08:59:11;;;;;;;6.22;4.43;;;28.40;96.80;;;;;;5083856;28;20460;-67
2021/06/20 09:02:26;;;;;;;9.02;3.83;;;27.90;97.00;;;;;;5076101;28;20043;-67
2021/06/20 09:05:30;;;;;;;6.28;3.28;;;28.70;96.70;;;;;;5076301;28;20050;-68
2021/06/20 09:08:34;;;;;;;7.05;3.00;;;28.60;94.80;;;;;;5079948;28;20060;-66
2021/06/20 09:11:41;;;;;;;10.38;3.20;;;28.30;93.60;;;;;;5080671;28;20039;-67
2021/06/20 09:14:50;;;;;;;6.55;3.17;;;27.50;94.30;;;;;;5080083;28;20474;-68
2021/06/20 09:17:59;;;;;;;7.18;3.60;;;27.20;95.20;;;;;;5079266;28;20649;-69
2021/06/20 09:21:10;;;;;;;8.25;3.17;;;27.60;95.10;;;;;;5078807;28;20047;-68
2021/06/20 09:24:18;;;;;;;7.15;3.42;;;28.90;94.00;;;;;;5086640;28;20043;-68
2021/06/20 09:27:23;;;;;;;4.85;2.85;;;30.80;91.80;;;;;;5079583;28;20076;-69
2021/06/20 09:30:30;;;;;;;9.15;2.95;;;32.10;90.50;;;;;;5078510;28;20058;-70
2021/06/20 09:33:36;;;;;;;8.43;2.80;;;31.50;90.30;;;;;;5077754;28;20043;-68
2021/06/20 09:36:40;;;;;;;5.72;3.40;;;31.00;90.40;;;;;;5078404;28;20039;-68
2021/06/20 09:39:44;;;;;;;8.13;3.30;;;29.20;92.50;;;;;;5076099;28;20040;-69
2021/06/20 09:42:49;;;;;;;9.65;4.05;;;28.80;93.60;;;;;;5078966;28;20043;-69
2021/06/20 09:45:54;;;;;;;5.63;3.33;;;28.80;94.50;;;;;;5081988;28;20051;-68
2021/06/20 09:48:59;;;;;;;7.55;3.70;;;28.80;94.00;;;;;;5077010;28;20055;-68
2021/06/20 09:52:04;;;;;;;5.88;3.60;;;28.60;93.90;;;;;;5073984;28;20043;-68
2021/06/20 09:55:10;;;;;;;7.70;4.20;;;28.30;94.70;;;;;;5079780;28;20051;-68
2021/06/20 09:58:21;;;;;;;8.40;3.92;;;27.60;95.80;;;;;;5078456;28;20043;-68
2021/06/20 10:01:28;;;;;;;10.02;4.05;;;27.80;95.90;;;;;;5073581;28;20047;-68
2021/06/20 10:04:34;;;;;;;9.02;4.00;;;27.80;95.60;;;;;;5077080;28;20050;-68
2021/06/20 10:07:39;;;;;;;6.72;3.80;;;27.80;96.30;;;;;;5076261;28;20387;-68
2021/06/20 10:10:43;;;;;;;5.93;3.97;;;29.00;95.00;;;;;;5075012;28;20043;-69
2021/06/20 10:13:47;;;;;;;6.68;3.80;;;28.30;95.70;;;;;;5072804;28;20410;-70
2021/06/20 10:16:55;;;;;;;9.77;3.53;;;29.10;95.70;;;;;;5080213;28;20039;-71
2021/06/20 10:20:08;;;;;;;9.85;4.13;;;30.40;93.80;;;;;;5077086;28;20403;-69
2021/06/20 10:23:23;;;;;;;18.90;3.88;;;30.60;93.90;;;;;;5081401;28;20047;-68
2021/06/20 10:26:27;;;;;;;11.02;4.05;;;30.10;93.60;;;;;;5087664;28;20501;-68
2021/06/20 10:29:34;;;;;;;14.85;4.03;;;29.90;94.10;;;;;;5082941;28;20050;-68
2021/06/20 10:32:45;;;;;;;7.90;3.58;;;28.70;95.40;;;;;;5087467;28;20047;-67
2021/06/20 10:36:04;;;;;;;8.15;3.45;;;28.50;95.20;;;;;;5083240;28;20644;-69
2021/06/20 10:39:13;;;;;;;10.35;3.95;;;29.70;94.20;;;;;;5089285;28;20043;-67
2021/06/20 10:42:17;;;;;;;15.32;4.82;;;29.70;93.50;;;;;;5090203;28;20059;-68
2021/06/20 10:45:38;;;;;;;12.07;4.18;;;29.80;93.90;;;;;;5091043;28;20055;-69
2021/06/20 10:48:42;;;;;;;11.07;4.15;;;29.80;93.60;;;;;;5091936;28;20390;-68
2021/06/20 10:51:46;;;;;;;16.75;4.18;;;29.50;94.00;;;;;;5090260;28;20406;-68
2021/06/20 10:55:04;;;;;;;19.90;4.25;;;30.10;94.50;;;;;;5089415;28;20102;-68
2021/06/20 10:58:17;;;;;;;11.73;4.25;;;30.20;93.90;;;;;;5074574;28;20047;-68
2021/06/20 11:01:23;;;;;;;22.15;5.28;;;31.20;93.00;;;;;;5086163;28;20098;-69
2021/06/20 11:04:28;;;;;;;12.63;4.70;;;31.20;93.10;;;;;;5087177;28;20055;-67
2021/06/20 11:07:32;;;;;;;14.35;4.75;;;30.30;93.70;;;;;;5078135;28;20047;-68
2021/06/20 11:10:37;;;;;;;14.80;4.68;;;30.80;93.40;;;;;;5088723;28;20075;-69
2021/06/20 11:13:44;;;;;;;10.00;3.75;;;32.00;91.70;;;;;;5089713;28;20514;-70
2021/06/20 11:16:51;;;;;;;8.55;3.75;;;33.30;92.20;;;;;;5090338;28;20043;-67
2021/06/20 11:19:55;;;;;;;8.63;3.63;;;33.10;91.30;;;;;;5089940;28;20043;-68
2021/06/20 11:23:00;;;;;;;9.00;4.15;;;33.30;91.30;;;;;;5081862;28;20043;-67
2021/06/20 11:26:04;;;;;;;11.98;3.78;;;32.30;91.60;;;;;;5086700;28;20076;-68
2021/06/20 11:29:09;;;;;;;9.80;3.70;;;32.20;92.30;;;;;;5082943;28;20043;-68
2021/06/20 11:32:22;;;;;;;11.82;4.03;;;31.10;92.20;;;;;;5075836;28;20039;-68
2021/06/20 11:35:26;;;;;;;11.18;4.28;;;30.60;94.10;;;;;;5087159;28;20051;-69
2021/06/20 11:38:42;;;;;;;12.50;4.55;;;31.90;93.50;;;;;;5078669;28;20501;-69
2021/06/20 11:41:52;;;;;;;9.95;3.95;;;31.30;93.10;;;;;;5074243;28;20053;-68
2021/06/20 11:45:05;;;;;;;15.15;4.25;;;33.50;91.00;;;;;;5076381;28;20051;-68
2021/06/20 11:48:09;;;;;;;14.57;3.97;;;33.60;90.30;;;;;;5070974;28;20056;-68
2021/06/20 11:51:13;;;;;;;14.43;3.88;;;33.30;91.10;;;;;;5079856;28;20052;-69
2021/06/20 11:54:23;;;;;;;11.52;3.80;;;34.20;90.20;;;;;;5081849;28;20757;-67
2021/06/20 11:57:28;;;;;;;15.02;4.07;;;32.30;90.50;;;;;;5082341;28;20035;-68
2021/06/20 12:00:34;;;;;;;19.30;4.20;;;31.70;91.70;;;;;;5085256;28;20379;-69
2021/06/20 12:03:41;;;;;;;9.68;4.07;;;32.00;91.50;;;;;;5081902;28;20051;-68
2021/06/20 12:06:45;;;;;;;13.57;4.22;;;33.80;90.20;;;;;;5081187;28;20047;-70
2021/06/20 12:09:49;;;;;;;13.40;3.92;;;33.70;90.30;;;;;;5082758;28;20035;-69
2021/06/20 12:12:59;;;;;;;12.57;4.47;;;33.30;90.60;;;;;;5083255;28;20039;-69
2021/06/20 12:16:04;;;;;;;16.67;6.57;;;33.80;90.20;;;;;;5078929;28;20067;-68
2021/06/20 12:19:14;;;;;;;18.98;4.00;;;32.80;90.30;;;;;;5079691;28;20043;-68
2021/06/20 12:22:19;;;;;;;18.55;4.90;;;32.10;91.80;;;;;;5082238;28;20043;-68
2021/06/20 12:25:24;;;;;;;17.67;4.85;;;32.90;91.30;;;;;;5082746;28;20051;-67
2021/06/20 12:28:29;;;;;;;15.50;4.45;;;31.90;91.10;;;;;;5085550;28;20055;-68
2021/06/20 12:31:34;;;;;;;15.60;4.18;;;31.80;91.90;;;;;;5079718;28;20051;-67
2021/06/20 12:34:53;;;;;;;18.08;4.30;;;32.30;91.10;;;;;;5079748;28;20392;-68
2021/06/20 12:37:58;;;;;;;17.75;4.18;;;32.90;91.30;;;;;;5078465;28;20090;-67
2021/06/20 12:41:03;;;;;;;14.70;4.00;;;33.20;91.30;;;;;;5079209;28;20043;-69
2021/06/20 12:44:08;;;;;;;14.48;4.18;;;33.10;91.00;;;;;;5079978;28;20039;-69
2021/06/20 12:47:12;;;;;;;11.48;3.47;;;33.90;89.00;;;;;;5078362;28;20051;-69
2021/06/20 12:50:33;;;;;;;14.18;4.20;;;34.40;88.30;;;;;;5079845;28;20055;-68
2021/06/20 12:53:43;;;;;;;16.35;3.85;;;35.10;87.90;;;;;;5078681;28;20050;-70
2021/06/20 12:56:47;;;;;;;19.95;4.47;;;34.30;88.70;;;;;;5080137;28;20509;-71
2021/06/20 12:59:53;;;;;;;11.70;4.07;;;34.70;87.80;;;;;;5079883;28;20311;-70
2021/06/20 13:03:04;;;;;;;18.30;4.40;;;35.30;88.80;;;;;;5077524;28;20048;-69
2021/06/20 13:06:11;;;;;;;15.80;4.50;;;35.10;87.70;;;;;;5079209;28;20484;-69
2021/06/20 13:09:16;;;;;;;18.65;3.97;;;34.20;88.20;;;;;;5081913;28;20048;-69
2021/06/20 13:12:21;;;;;;;14.98;4.78;;;33.30;90.30;;;;;;5079693;28;20047;-69
2021/06/20 13:15:27;;;;;;;22.10;4.32;;;33.00;91.40;;;;;;5078785;28;20051;-68
2021/06/20 13:18:31;;;;;;;17.88;4.22;;;33.80;90.00;;;;;;5077114;28;20423;-68
2021/06/20 13:21:37;;;;;;;16.58;4.25;;;34.10;87.70;;;;;;5078652;28;20043;-69
2021/06/20 13:24:41;;;;;;;14.02;4.22;;;35.00;90.10;;;;;;5080056;28;20055;-69
2021/06/20 13:27:46;;;;;;;14.40;4.47;;;34.10;90.70;;;;;;5078644;28;20404;-70
2021/06/20 13:30:51;;;;;;;14.85;3.92;;;34.70;90.90;;;;;;5078134;28;20047;-68
2021/06/20 13:33:56;;;;;;;11.73;4.07;;;35.10;89.40;;;;;;5078980;28;20052;-69
2021/06/20 13:37:00;;;;;;;14.20;4.38;;;35.50;90.10;;;;;;5077502;28;20040;-68
2021/06/20 13:40:10;;;;;;;21.15;4.50;;;35.80;90.40;;;;;;5077001;28;20055;-70
2021/06/20 13:43:15;;;;;;;17.33;4.20;;;35.90;90.20;;;;;;5083152;28;20047;-69
2021/06/20 13:46:19;;;;;;;13.13;4.20;;;36.00;90.00;;;;;;5080098;28;20048;-70
2021/06/20 13:49:23;;;;;;;13.48;3.85;;;36.10;87.40;;;;;;5081907;28;20048;-70
2021/06/20 13:52:28;;;;;;;25.90;5.15;;;36.20;88.30;;;;;;5077957;28;20390;-69
2021/06/20 13:55:32;;;;;;;17.17;4.55;;;35.60;86.90;;;;;;5078318;28;20525;-68
2021/06/20 13:58:38;;;;;;;21.95;4.78;;;35.60;86.40;;;;;;5079181;28;20556;-68
2021/06/20 14:01:43;;;;;;;19.27;5.38;;;35.30;85.80;;;;;;5078237;28;20047;-68
2021/06/20 14:04:47;;;;;;;19.30;4.20;;;35.00;85.30;;;;;;5076918;28;20047;-68
2021/06/20 14:07:52;;;;;;;17.25;4.57;;;34.40;87.00;;;;;;5085085;28;20051;-69
2021/06/20 14:10:57;;;;;;;19.92;5.20;;;34.40;86.70;;;;;;5084811;28;20501;-67
2021/06/20 14:14:03;;;;;;;20.27;4.43;;;34.50;89.10;;;;;;5088072;28;20086;-68
2021/06/20 14:17:08;;;;;;;21.88;4.97;;;35.00;86.60;;;;;;5081097;28;20040;-67
2021/06/20 14:20:14;;;;;;;21.63;5.10;;;34.20;89.00;;;;;;5082406;28;20061;-68
2021/06/20 14:23:18;;;;;;;23.45;4.65;;;33.80;90.10;;;;;;5083247;28;20059;-68
2021/06/20 14:26:24;;;;;;;28.58;5.68;;;34.50;85.20;;;;;;5082182;28;20039;-69
2021/06/20 14:29:28;;;;;;;25.40;5.68;;;34.00;87.60;;;;;;5083622;28;20039;-67
2021/06/20 14:32:33;;;;;;;24.83;4.80;;;33.10;86.50;;;;;;5081560;28;20035;-68
2021/06/20 14:35:37;;;;;;;31.75;6.03;;;33.90;87.50;;;;;;5083254;28;20048;-67
2021/06/20 14:38:40;;;;;;;29.70;4.95;;;32.90;87.60;;;;;;5083125;28;20043;-67
2021/06/20 14:41:44;;;;;;;21.27;5.03;;;32.20;89.30;;;;;;5080166;28;20403;-66
2021/06/20 14:44:49;;;;;;;23.30;5.30;;;32.20;90.80;;;;;;5078729;28;20043;-68
2021/06/20 14:47:54;;;;;;;19.70;5.40;;;32.30;90.60;;;;;;5082826;28;20999;-70
2021/06/20 14:50:59;;;;;;;20.15;5.13;;;32.60;90.00;;;;;;5080490;28;20042;-69
2021/06/20 14:54:03;;;;;;;36.10;5.32;;;32.90;90.10;;;;;;5082353;28;20400;-70
2021/06/20 14:57:08;;;;;;;17.08;5.03;;;33.40;88.40;;;;;;5080654;28;20039;-70
2021/06/20 15:00:14;;;;;;;25.27;5.70;;;33.60;88.10;;;;;;5081218;28;20055;-70
2021/06/20 15:03:19;;;;;;;25.65;6.05;;;34.40;88.10;;;;;;5082936;28;20979;-70
2021/06/20 15:06:27;;;;;;;46.60;5.70;;;34.70;87.60;;;;;;5082563;28;20498;-69
2021/06/20 15:09:31;;;;;;;27.38;5.18;;;34.70;86.80;;;;;;5081248;28;20039;-70
2021/06/20 15:12:35;;;;;;;27.65;5.22;;;34.10;87.50;;;;;;5080101;28;20510;-71
2021/06/20 15:15:39;;;;;;;31.02;5.93;;;33.80;86.90;;;;;;5081832;28;20066;-71
2021/06/20 15:18:44;;;;;;;30.80;5.90;;;33.60;87.60;;;;;;5084129;28;20054;-70
2021/06/20 15:21:49;;;;;;;28.65;5.72;;;33.30;88.50;;;;;;5081008;28;20097;-70
2021/06/20 15:24:53;;;;;;;35.03;6.07;;;33.00;89.60;;;;;;5080762;28;20391;-68
2021/06/20 15:27:57;;;;;;;24.20;5.00;;;32.70;89.40;;;;;;5081242;28;20047;-70
2021/06/20 15:31:02;;;;;;;25.20;5.75;;;32.40;89.40;;;;;;5078265;28;20478;-69
2021/06/20 15:34:06;;;;;;;25.20;6.35;;;32.10;90.30;;;;;;5080570;28;20047;-69
2021/06/20 15:37:12;;;;;;;30.95;6.55;;;32.20;90.80;;;;;;5080785;28;20929;-70
2021/06/20 15:40:17;;;;;;;25.73;5.50;;;32.10;90.30;;;;;;5079061;28;20051;-69
2021/06/20 15:43:21;;;;;;;24.15;5.50;;;32.00;90.90;;;;;;5082287;28;20050;-70
2021/06/20 15:46:29;;;;;;;32.85;6.30;;;32.10;91.00;;;;;;5078928;28;20059;-68
2021/06/20 15:49:34;;;;;;;35.40;6.57;;;31.20;91.90;;;;;;5081153;28;20051;-68
2021/06/20 15:52:39;;;;;;;37.45;6.43;;;31.00;91.70;;;;;;5081748;28;20510;-70
2021/06/20 15:55:43;;;;;;;40.13;7.07;;;31.20;92.30;;;;;;5080210;28;20055;-69